createdAt,value
2018-12-29T00:02:36.859Z,94.00
2018-12-29T00:05:17.289Z,93.90
2018-12-29T00:07:57.762Z,93.90
2018-12-29T00:10:37.918Z,94.00
2018-12-29T00:13:18.394Z,94.00
2018-12-29T00:15:58.783Z,94.10
2018-12-29T00:18:39.341Z,94.20
2018-12-29T00:21:18.154Z,94.10
2018-12-29T00:24:05.890Z,94.20
2018-12-29T00:26:53.649Z,94.10
2018-12-29T00:29:41.385Z,94.10
2018-12-29T00:32:29.150Z,94.20
2018-12-29T00:35:16.899Z,94.20
2018-12-29T00:38:04.664Z,94.30
2018-12-29T00:40:52.402Z,94.30
2018-12-29T00:43:40.162Z,94.20
2018-12-29T00:46:08.569Z,94.30
2018-12-29T00:48:56.325Z,94.40
2018-12-29T00:51:44.065Z,94.30
2018-12-29T00:54:31.842Z,94.50
2018-12-29T00:57:19.586Z,94.50
2018-12-29T01:00:07.409Z,94.40
2018-12-29T01:02:55.174Z,94.40
2018-12-29T01:05:42.911Z,94.50
2018-12-29T01:11:24.141Z,94.30
2018-12-29T01:14:11.879Z,94.30
2018-12-29T01:16:40.332Z,94.30
2018-12-29T01:19:08.726Z,94.20
2018-12-29T01:21:37.116Z,94.20
2018-12-29T01:24:06.017Z,94.20
2018-12-29T01:26:34.452Z,94.40
2018-12-29T01:29:02.913Z,94.50
2018-12-29T01:31:32.678Z,94.50
2018-12-29T01:34:01.073Z,94.60
2018-12-29T01:36:29.489Z,94.50
2018-12-29T01:38:57.925Z,94.50
2018-12-29T01:41:26.332Z,94.50
2018-12-29T01:43:54.732Z,94.40
2018-12-29T01:46:23.156Z,94.40
2018-12-29T01:48:51.562Z,94.40
2018-12-29T01:51:19.965Z,94.40
2018-12-29T01:53:48.669Z,94.50
2018-12-29T01:56:17.337Z,94.30
2018-12-29T01:58:45.739Z,94.50
2018-12-29T02:01:14.165Z,94.50
2018-12-29T02:03:42.557Z,94.40
2018-12-29T02:06:10.972Z,94.40
2018-12-29T02:08:39.408Z,94.40
2018-12-29T02:11:07.813Z,94.40
2018-12-29T02:13:36.468Z,94.50
2018-12-29T02:16:04.989Z,94.50
2018-12-29T02:18:33.386Z,94.50
2018-12-29T02:21:01.851Z,94.70
2018-12-29T02:23:30.561Z,94.70
2018-12-29T02:25:58.961Z,94.60
2018-12-29T02:28:27.392Z,94.70
2018-12-29T02:30:55.833Z,94.70
2018-12-29T02:33:24.248Z,94.60
2018-12-29T02:35:52.628Z,94.60
2018-12-29T02:38:21.068Z,94.60
2018-12-29T02:40:49.461Z,94.60
2018-12-29T02:43:17.902Z,94.80
2018-12-29T02:45:46.317Z,94.80
2018-12-29T02:48:14.720Z,94.80
2018-12-29T02:50:43.249Z,94.70
2018-12-29T02:53:11.646Z,94.80
2018-12-29T02:55:40.044Z,94.70
2018-12-29T02:58:08.768Z,94.70
2018-12-29T03:00:37.167Z,94.80
2018-12-29T03:03:05.565Z,94.80
2018-12-29T03:05:34.007Z,94.70
2018-12-29T03:08:02.397Z,94.80
2018-12-29T03:10:30.794Z,94.70
2018-12-29T03:12:59.241Z,94.70
2018-12-29T03:15:27.689Z,94.70
2018-12-29T03:17:56.084Z,94.60
2018-12-29T03:20:24.536Z,94.60
2018-12-29T03:22:53.154Z,94.70
2018-12-29T03:25:21.553Z,94.60
2018-12-29T03:27:49.950Z,94.40
2018-12-29T03:30:18.401Z,94.50
2018-12-29T03:32:46.808Z,94.50
2018-12-29T03:35:15.197Z,94.50
2018-12-29T03:37:43.830Z,94.60
2018-12-29T03:40:12.225Z,94.70
2018-12-29T03:42:40.622Z,94.80
2018-12-29T03:45:09.065Z,95.10
2018-12-29T03:47:37.471Z,95.30
2018-12-29T03:50:06.437Z,95.80
2018-12-29T03:52:34.889Z,95.90
2018-12-29T03:55:06.236Z,96.00
2018-12-29T03:57:34.639Z,96.30
2018-12-29T04:00:04.590Z,96.50
2018-12-29T04:02:33.003Z,96.50
2018-12-29T04:05:01.400Z,96.60
2018-12-29T04:07:29.845Z,97.00
2018-12-29T04:09:58.245Z,97.20
2018-12-29T04:12:26.653Z,97.30
2018-12-29T04:14:55.098Z,97.60
2018-12-29T04:17:23.503Z,97.70
2018-12-29T04:19:51.934Z,97.80
2018-12-29T04:22:20.585Z,98.00
2018-12-29T04:24:48.972Z,98.40
2018-12-29T04:27:17.381Z,98.90
2018-12-29T04:29:45.823Z,98.60
2018-12-29T04:32:14.226Z,98.50
2018-12-29T04:34:42.624Z,98.60
2018-12-29T04:37:11.070Z,98.80
2018-12-29T04:39:39.476Z,98.90
2018-12-29T04:42:07.872Z,99.00
2018-12-29T04:44:36.542Z,99.00
2018-12-29T04:47:04.985Z,99.40
2018-12-29T04:49:33.390Z,99.70
2018-12-29T04:52:01.834Z,99.40
2018-12-29T04:54:30.308Z,99.50
2018-12-29T04:56:58.712Z,99.60
2018-12-29T04:59:27.153Z,99.60
2018-12-29T05:01:55.577Z,99.60
2018-12-29T05:04:23.978Z,99.70
2018-12-29T05:06:52.449Z,99.70
2018-12-29T05:09:20.851Z,99.70
2018-12-29T05:11:49.280Z,99.60
2018-12-29T05:14:17.742Z,99.80
2018-12-29T05:16:46.149Z,99.70
2018-12-29T05:19:14.542Z,99.80
2018-12-29T05:21:42.984Z,99.80
2018-12-29T05:24:11.391Z,99.90
2018-12-29T05:26:39.792Z,99.90
2018-12-29T05:29:08.229Z,99.90
2018-12-29T05:31:36.632Z,99.90
2018-12-29T05:34:05.077Z,99.90
2018-12-29T05:36:33.514Z,99.90
2018-12-29T05:39:01.908Z,99.90
2018-12-29T05:41:30.834Z,99.90
2018-12-29T05:43:59.228Z,99.90
2018-12-29T05:46:27.626Z,99.90
2018-12-29T05:48:56.078Z,99.90
2018-12-29T05:51:24.558Z,99.90
2018-12-29T05:53:53.085Z,99.90
2018-12-29T05:56:21.484Z,99.90
2018-12-29T05:58:50.005Z,99.90
2018-12-29T06:01:18.422Z,99.90
2018-12-29T06:03:46.828Z,99.90
2018-12-29T06:06:15.257Z,99.90
2018-12-29T06:08:43.661Z,99.90
2018-12-29T06:11:12.072Z,99.90
2018-12-29T06:13:40.508Z,99.90
2018-12-29T06:16:08.908Z,99.90
2018-12-29T06:18:37.314Z,99.90
2018-12-29T06:21:05.897Z,99.90
2018-12-29T06:23:34.399Z,99.90
2018-12-29T06:26:02.782Z,99.90
2018-12-29T06:28:31.215Z,99.90
2018-12-29T06:30:59.857Z,99.90
2018-12-29T06:33:28.263Z,99.90
2018-12-29T06:35:56.661Z,99.90
2018-12-29T06:38:25.132Z,99.90
2018-12-29T06:40:53.598Z,99.90
2018-12-29T06:43:21.993Z,99.90
2018-12-29T06:45:50.472Z,99.90
2018-12-29T06:48:18.865Z,99.90
2018-12-29T06:50:47.325Z,99.90
2018-12-29T06:53:15.727Z,99.90
2018-12-29T06:55:44.121Z,99.90
2018-12-29T06:58:12.566Z,99.90
2018-12-29T07:00:40.974Z,99.90
2018-12-29T07:03:09.386Z,99.90
2018-12-29T07:05:37.821Z,99.90
2018-12-29T07:08:06.233Z,99.90
2018-12-29T07:10:34.625Z,99.90
2018-12-29T07:13:03.060Z,99.90
2018-12-29T07:19:36.235Z,99.90
2018-12-29T07:22:23.963Z,99.90
2018-12-29T07:25:11.734Z,99.90
2018-12-29T07:27:59.469Z,99.90
2018-12-29T07:30:47.260Z,99.90
2018-12-29T07:36:43.590Z,99.90
2018-12-29T07:39:31.326Z,99.90
2018-12-29T07:45:12.462Z,99.90
2018-12-29T07:48:00.250Z,99.80
2018-12-29T07:50:47.985Z,99.80
2018-12-29T07:53:35.767Z,99.90
2018-12-29T07:56:16.658Z,99.90
2018-12-29T07:58:57.378Z,99.90
2018-12-29T08:01:37.949Z,99.90
2018-12-29T08:04:18.636Z,99.90
2018-12-29T08:06:59.210Z,99.90
2018-12-29T08:09:39.936Z,99.90
2018-12-29T08:12:20.534Z,99.90
2018-12-29T08:15:01.608Z,99.90
2018-12-29T08:17:42.550Z,99.90
2018-12-29T08:20:23.450Z,99.90
2018-12-29T08:23:04.106Z,99.90
2018-12-29T08:25:44.436Z,99.90
2018-12-29T08:28:23.230Z,99.90
2018-12-29T08:31:11.077Z,99.90
2018-12-29T08:33:58.813Z,99.90
2018-12-29T08:39:39.955Z,99.90
2018-12-29T08:42:27.747Z,99.90
2018-12-29T08:45:15.487Z,99.80
2018-12-29T08:48:03.265Z,99.90
2018-12-29T08:50:51.010Z,99.90
2018-12-29T08:53:19.440Z,99.70
2018-12-29T08:55:47.886Z,99.80
2018-12-29T08:58:35.621Z,99.80
2018-12-29T09:01:23.408Z,99.80
2018-12-29T09:04:11.153Z,99.90
2018-12-29T09:06:58.937Z,99.80
2018-12-29T09:09:46.670Z,99.90
2018-12-29T09:12:34.457Z,99.90
2018-12-29T09:15:22.204Z,99.90
2018-12-29T09:18:09.984Z,99.90
2018-12-29T09:20:57.721Z,99.90
2018-12-29T09:23:45.505Z,99.80
2018-12-29T09:26:33.243Z,99.70
2018-12-29T09:29:21.014Z,99.70
2018-12-29T09:41:02.578Z,99.30
2018-12-29T09:46:44.218Z,99.20
2018-12-29T09:49:31.993Z,98.90
2018-12-29T09:52:19.734Z,99.10
2018-12-29T09:55:07.518Z,98.90
2018-12-29T09:57:55.263Z,98.80
2018-12-29T10:00:43.041Z,98.90
2018-12-29T10:09:30.737Z,98.70
2018-12-29T10:12:18.473Z,98.80
2018-12-29T10:15:06.534Z,98.70
2018-12-29T10:17:54.283Z,98.70
2018-12-29T10:20:34.562Z,98.50
2018-12-29T10:23:15.585Z,98.20
2018-12-29T10:25:55.946Z,98.30
2018-12-29T10:28:36.884Z,98.10
2018-12-29T10:31:17.802Z,97.90
2018-12-29T10:33:59.505Z,97.90
2018-12-29T10:36:39.866Z,98.00
2018-12-29T10:39:20.143Z,97.80
2018-12-29T10:42:08.035Z,98.00
2018-12-29T10:47:49.093Z,97.90
2018-12-29T10:50:36.875Z,97.80
2018-12-29T10:53:24.609Z,97.70
2018-12-29T10:56:12.387Z,97.60
2018-12-29T10:59:00.129Z,97.80
2018-12-29T11:01:47.902Z,97.90
2018-12-29T11:10:23.024Z,97.80
2018-12-29T11:13:10.824Z,97.80
2018-12-29T11:15:58.562Z,97.70
2018-12-29T11:18:46.345Z,97.70
2018-12-29T11:21:34.101Z,97.60
2018-12-29T11:24:21.884Z,97.50
2018-12-29T11:27:09.642Z,97.40
2018-12-29T11:29:57.451Z,97.50
2018-12-29T11:32:45.215Z,97.50
2018-12-29T11:38:26.549Z,97.60
2018-12-29T11:41:07.477Z,97.50
2018-12-29T11:43:46.658Z,97.60
2018-12-29T11:46:34.426Z,97.40
2018-12-29T11:49:22.215Z,97.30
2018-12-29T11:52:09.958Z,97.30
2018-12-29T11:54:59.480Z,97.20
2018-12-29T11:57:47.225Z,97.30
2018-12-29T12:03:30.823Z,97.20
2018-12-29T12:06:18.552Z,97.10
2018-12-29T12:09:06.693Z,97.00
2018-12-29T12:11:54.434Z,97.10
2018-12-29T12:14:42.210Z,97.00
2018-12-29T12:17:29.947Z,97.20
2018-12-29T12:20:17.717Z,96.90
2018-12-29T12:23:07.173Z,96.80
2018-12-29T12:25:54.967Z,96.70
2018-12-29T12:28:42.705Z,96.60
2018-12-29T12:31:30.485Z,96.80
2018-12-29T12:34:18.232Z,96.60
2018-12-29T12:37:06.087Z,96.60
2018-12-29T12:39:53.821Z,96.60
2018-12-29T12:45:27.790Z,96.50
2018-12-29T12:48:08.987Z,96.50
2018-12-29T12:50:49.626Z,96.30
2018-12-29T12:53:30.173Z,96.30
2018-12-29T12:56:10.894Z,96.20
2018-12-29T12:58:51.582Z,96.10
2018-12-29T13:01:32.490Z,96.00
2018-12-29T13:04:13.098Z,96.10
2018-12-29T13:06:53.297Z,96.00
2018-12-29T13:09:34.102Z,96.00
2018-12-29T13:12:14.845Z,95.80
2018-12-29T13:14:55.381Z,96.00
2018-12-29T13:17:23.789Z,95.90
2018-12-29T13:19:52.285Z,95.80
2018-12-29T13:22:20.731Z,95.90
2018-12-29T13:24:49.153Z,96.00
2018-12-29T13:27:17.613Z,95.90
2018-12-29T13:29:46.176Z,95.90
2018-12-29T13:32:14.750Z,95.90
2018-12-29T13:34:43.143Z,95.70
2018-12-29T13:37:11.589Z,95.80
2018-12-29T13:39:40.001Z,95.50
2018-12-29T13:42:08.396Z,95.70
2018-12-29T13:44:36.949Z,95.50
2018-12-29T13:47:05.341Z,95.30
2018-12-29T13:49:33.786Z,94.80
2018-12-29T13:52:02.256Z,94.50
2018-12-29T13:54:30.655Z,94.30
2018-12-29T13:56:59.062Z,94.10
2018-12-29T13:59:27.523Z,93.70
2018-12-29T14:01:55.919Z,93.50
2018-12-29T14:04:24.319Z,93.10
2018-12-29T14:06:53.071Z,93.00
2018-12-29T14:09:21.477Z,92.90
2018-12-29T14:11:50.206Z,92.70
2018-12-29T14:14:18.697Z,92.80
2018-12-29T14:16:47.095Z,92.80
2018-12-29T14:19:15.495Z,92.80
2018-12-29T14:21:43.954Z,92.90
2018-12-29T14:24:12.353Z,92.70
2018-12-29T14:26:40.761Z,92.70
2018-12-29T14:29:09.209Z,92.70
2018-12-29T14:31:38.588Z,92.80
2018-12-29T14:34:06.990Z,92.90
2018-12-29T14:36:35.460Z,92.70
2018-12-29T14:39:05.574Z,92.80
2018-12-29T14:41:33.990Z,92.80
2018-12-29T14:44:02.610Z,92.80
2018-12-29T14:46:31.081Z,92.90
2018-12-29T14:48:59.521Z,92.90
2018-12-29T14:51:28.329Z,93.00
2018-12-29T14:53:56.780Z,92.80
2018-12-29T14:56:25.180Z,93.00
2018-12-29T14:58:53.573Z,93.10
2018-12-29T15:01:22.223Z,93.00
2018-12-29T15:03:51.010Z,93.40
2018-12-29T15:06:19.400Z,93.00
2018-12-29T15:08:47.874Z,93.00
2018-12-29T15:11:16.282Z,93.00
2018-12-29T15:13:44.689Z,93.00
2018-12-29T15:16:13.136Z,92.90
2018-12-29T15:18:43.620Z,93.00
2018-12-29T15:21:11.683Z,93.00
2018-12-29T15:23:40.133Z,93.00
2018-12-29T15:26:08.985Z,93.20
2018-12-29T15:28:37.437Z,93.30
2018-12-29T15:31:06.127Z,93.30
2018-12-29T15:33:34.921Z,93.20
2018-12-29T15:36:03.325Z,93.20
2018-12-29T15:38:31.964Z,93.30
2018-12-29T15:41:00.654Z,93.40
2018-12-29T15:43:29.070Z,93.40
2018-12-29T15:45:57.689Z,93.50
2018-12-29T15:48:26.290Z,93.50
2018-12-29T15:50:54.754Z,93.50
2018-12-29T15:53:23.265Z,93.40
2018-12-29T15:55:51.685Z,93.50
2018-12-29T15:58:20.365Z,93.60
2018-12-29T16:00:48.810Z,93.60
2018-12-29T16:03:17.219Z,93.70
2018-12-29T16:05:46.036Z,93.60
2018-12-29T16:08:14.505Z,93.50
2018-12-29T16:10:42.925Z,93.50
2018-12-29T16:13:11.378Z,93.60
2018-12-29T16:15:39.783Z,93.60
2018-12-29T16:18:08.252Z,93.80
2018-12-29T16:20:36.781Z,93.70
2018-12-29T16:23:05.263Z,93.80
2018-12-29T16:25:33.733Z,93.80
2018-12-29T16:28:02.198Z,93.70
2018-12-29T16:30:30.975Z,93.80
2018-12-29T16:32:59.748Z,93.90
2018-12-29T16:35:28.316Z,94.20
2018-12-29T16:37:57.209Z,94.80
2018-12-29T16:40:25.602Z,95.40
2018-12-29T16:42:54.023Z,96.00
2018-12-29T16:45:22.930Z,96.50
2018-12-29T16:47:51.364Z,96.90
2018-12-29T16:50:19.816Z,97.20
2018-12-29T16:52:48.238Z,97.40
2018-12-29T16:55:16.699Z,97.70
2018-12-29T16:57:45.311Z,98.00
2018-12-29T17:00:13.814Z,98.30
2018-12-29T17:02:42.225Z,98.50
2018-12-29T17:05:10.956Z,98.80
2018-12-29T17:07:39.349Z,98.90
2018-12-29T17:10:07.744Z,99.00
2018-12-29T17:12:36.991Z,99.10
2018-12-29T17:15:05.956Z,99.50
2018-12-29T17:17:34.437Z,99.60
2018-12-29T17:20:02.874Z,99.70
2018-12-29T17:22:31.741Z,99.60
2018-12-29T17:25:00.200Z,99.60
2018-12-29T17:27:28.603Z,99.80
2018-12-29T17:29:57.373Z,99.90
2018-12-29T17:32:25.890Z,99.90
2018-12-29T17:34:55.618Z,99.90
2018-12-29T17:37:24.030Z,99.90
2018-12-29T17:39:52.540Z,99.90
2018-12-29T17:42:21.376Z,99.90
2018-12-29T17:44:49.772Z,99.90
2018-12-29T17:47:18.182Z,99.90
2018-12-29T17:49:46.625Z,99.90
2018-12-29T17:52:15.022Z,99.90
2018-12-29T17:54:43.426Z,99.90
2018-12-29T17:57:11.885Z,99.90
2018-12-29T17:59:40.290Z,99.90
2018-12-29T18:02:08.789Z,99.90
2018-12-29T18:04:37.737Z,99.90
2018-12-29T18:07:06.190Z,99.90
2018-12-29T18:09:34.702Z,99.90
2018-12-29T18:12:03.529Z,99.90
2018-12-29T18:14:31.930Z,99.90
2018-12-29T18:17:00.411Z,99.90
2018-12-29T18:19:30.854Z,99.90
2018-12-29T18:21:59.438Z,99.90
2018-12-29T18:24:27.850Z,99.90
2018-12-29T18:26:56.356Z,99.90
2018-12-29T18:29:24.755Z,99.90
2018-12-29T18:31:53.573Z,99.90
2018-12-29T18:34:21.967Z,99.90
2018-12-29T18:36:50.382Z,99.90
2018-12-29T18:39:18.890Z,99.90
2018-12-29T18:41:47.381Z,99.90
2018-12-29T18:44:15.821Z,99.90
2018-12-29T18:46:44.646Z,99.90
2018-12-29T18:49:13.049Z,99.90
2018-12-29T18:51:41.745Z,99.90
2018-12-29T18:54:10.203Z,99.90
2018-12-29T18:56:45.363Z,99.90
2018-12-29T18:59:08.804Z,99.90
2018-12-29T19:01:37.253Z,99.90
2018-12-29T19:04:05.653Z,99.90
2018-12-29T19:06:34.121Z,99.90
2018-12-29T19:09:02.577Z,99.90
2018-12-29T19:11:31.574Z,99.90
2018-12-29T19:14:01.347Z,99.90
2018-12-29T19:16:30.291Z,99.90
2018-12-29T19:19:18.229Z,99.90
2018-12-29T19:22:06.059Z,99.90
2018-12-29T19:24:53.801Z,99.90
2018-12-29T19:30:35.330Z,99.90
2018-12-29T19:33:23.478Z,99.90
2018-12-29T19:36:12.934Z,99.80
2018-12-29T19:47:40.472Z,99.00
2018-12-29T19:50:09.312Z,98.90
2018-12-29T19:52:57.100Z,98.80
2018-12-29T19:55:44.839Z,98.70
2018-12-29T20:01:26.442Z,98.60
2018-12-29T20:04:16.113Z,98.50
2018-12-29T20:07:03.854Z,98.60
2018-12-29T20:09:51.634Z,98.50
2018-12-29T20:12:39.379Z,98.50
2018-12-29T20:18:20.399Z,98.40
2018-12-29T20:21:08.193Z,98.30
2018-12-29T20:23:55.942Z,98.40
2018-12-29T20:26:43.726Z,98.30
2018-12-29T20:29:31.462Z,98.20
2018-12-29T20:32:19.250Z,98.20
2018-12-29T20:35:06.979Z,98.30
2018-12-29T20:37:54.761Z,98.30
2018-12-29T20:40:42.502Z,98.10
2018-12-29T20:43:30.283Z,98.10
2018-12-29T20:46:18.027Z,97.90
2018-12-29T20:51:58.907Z,97.90
2018-12-29T20:54:46.703Z,97.70
2018-12-29T21:00:43.077Z,97.70
2018-12-29T21:03:30.819Z,97.80
2018-12-29T21:06:18.605Z,97.90
2018-12-29T21:09:06.419Z,98.00
2018-12-29T21:14:40.629Z,98.00
2018-12-29T21:17:21.026Z,97.90
2018-12-29T21:20:01.704Z,97.90
2018-12-29T21:22:42.417Z,97.80
2018-12-29T21:25:22.808Z,97.70
2018-12-29T21:28:03.856Z,97.60
2018-12-29T21:30:44.230Z,97.30
2018-12-29T21:33:24.858Z,96.90
2018-12-29T21:38:45.681Z,96.60
2018-12-29T21:41:14.128Z,96.60
2018-12-29T21:43:42.570Z,96.50
2018-12-29T21:46:30.356Z,96.30
2018-12-29T21:49:18.134Z,96.20
2018-12-29T21:52:07.598Z,96.00
2018-12-29T21:57:48.758Z,96.10
2018-12-29T22:00:36.497Z,95.90
2018-12-29T22:03:04.937Z,95.60
2018-12-29T22:05:52.682Z,95.60
2018-12-29T22:08:40.465Z,95.40
2018-12-29T22:11:29.922Z,94.80
2018-12-29T22:14:17.697Z,94.70
2018-12-29T22:17:07.155Z,94.90
2018-12-29T22:19:54.961Z,94.80
2018-12-29T22:22:42.707Z,94.00
2018-12-29T22:25:30.488Z,93.60
2018-12-29T22:28:18.239Z,93.40
2018-12-29T22:31:06.030Z,93.00
2018-12-29T22:33:47.733Z,93.10
2018-12-29T22:36:27.941Z,93.40
2018-12-29T22:39:08.750Z,93.70
2018-12-29T22:41:49.095Z,93.90
2018-12-29T22:44:30.090Z,94.20
2018-12-29T22:47:10.447Z,94.30
2018-12-29T22:49:51.486Z,94.10
2018-12-29T22:52:32.440Z,93.70
2018-12-29T22:55:13.086Z,93.80
2018-12-29T22:57:53.765Z,93.50
2018-12-29T23:00:36.333Z,93.60
2018-12-29T23:03:17.431Z,93.60
2018-12-29T23:05:57.816Z,93.40
2018-12-29T23:08:36.529Z,93.00
2018-12-29T23:11:24.678Z,92.40
2018-12-29T23:13:53.076Z,92.00
2018-12-29T23:16:21.610Z,91.40
2018-12-29T23:19:11.101Z,91.50
2018-12-29T23:21:58.843Z,91.20
2018-12-29T23:24:46.630Z,91.20
2018-12-29T23:27:34.365Z,91.10
2018-12-29T23:30:22.226Z,91.20
2018-12-29T23:33:11.679Z,90.40
2018-12-29T23:35:59.558Z,90.70
2018-12-29T23:38:47.359Z,90.20
2018-12-29T23:44:28.229Z,88.70
2018-12-29T23:47:15.968Z,87.80
2018-12-29T23:49:56.482Z,86.60
2018-12-29T23:52:37.466Z,86.20
2018-12-29T23:55:18.226Z,86.00
2018-12-29T23:57:58.893Z,85.80
